Time;durP1;ratioP1;P1;durP2;ratioP2;P2;SDS_P1;SDS_P2;PMS_P1;PMS_P2;Temp;Humidity;BMP_temperature;BMP_pressure;BME280_temperature;BME280_humidity;BME280_pressure;Samples;Min_cycle;Max_cycle;Signal;HPM_P1;HPM_P2
2021/07/31 00:01:13;;;;;;;15.87;13.00;;;;;;;19.05;84.68;99957.69;1681747;82;21534;-72
2021/07/31 00:03:41;;;;;;;14.70;12.40;;;;;;;19.05;84.64;99957.69;1681663;84;21475;-72
2021/07/31 00:06:08;;;;;;;16.00;13.63;;;;;;;19.04;84.61;99957.46;1690176;84;21032;-72
2021/07/31 00:08:36;;;;;;;15.63;13.17;;;;;;;19.03;84.63;99958.03;1688332;84;21503;-72
2021/07/31 00:11:05;;;;;;;17.83;13.37;;;;;;;19.02;84.71;99959.16;1679417;82;21032;-72
2021/07/31 00:13:31;;;;;;;14.77;13.27;;;;;;;19.01;84.76;99959.47;1687986;84;21523;-72
2021/07/31 00:15:58;;;;;;;16.00;13.07;;;;;;;18.98;84.77;99961.70;1675777;84;21044;-71
2021/07/31 00:18:24;;;;;;;16.37;13.77;;;;;;;18.97;84.88;99972.30;1680014;84;21019;-72
2021/07/31 00:20:51;;;;;;;16.17;13.73;;;;;;;18.95;84.91;99965.63;1684624;84;21048;-72
2021/07/31 00:23:17;;;;;;;17.10;15.20;;;;;;;18.91;84.93;99964.13;1687487;84;21054;-72
2021/07/31 00:25:44;;;;;;;20.47;16.77;;;;;;;18.88;85.04;99966.14;1682418;84;21542;-73
2021/07/31 00:28:10;;;;;;;20.97;18.57;;;;;;;18.85;85.15;99961.94;1688308;84;20991;-72
2021/07/31 00:30:37;;;;;;;25.13;20.00;;;;;;;18.82;85.25;99966.12;1679243;84;21151;-72
2021/07/31 00:33:05;;;;;;;24.20;21.20;;;;;;;18.81;85.29;99963.72;1685841;82;20937;-72
2021/07/31 00:35:32;;;;;;;23.40;20.03;;;;;;;18.80;85.39;99961.58;1694461;84;21032;-72
2021/07/31 00:37:59;;;;;;;26.77;21.97;;;;;;;18.78;85.46;99964.38;1681497;84;21485;-71
2021/07/31 00:40:25;;;;;;;25.60;21.90;;;;;;;18.76;85.56;99966.62;1681133;84;21405;-72
2021/07/31 00:42:52;;;;;;;24.00;21.00;;;;;;;18.74;85.65;99960.96;1684996;82;21084;-72
2021/07/31 00:45:19;;;;;;;24.60;21.93;;;;;;;18.73;85.71;99958.59;1678052;84;21154;-72
2021/07/31 00:47:46;;;;;;;26.57;22.57;;;;;;;18.72;85.74;99961.87;1679441;84;21102;-72
2021/07/31 00:50:14;;;;;;;23.93;21.43;;;;;;;18.71;85.76;99965.64;1678189;84;22227;-72
2021/07/31 00:52:41;;;;;;;25.60;20.70;;;;;;;18.69;85.76;99962.48;1687008;82;21486;-72
2021/07/31 00:55:12;;;;;;;23.63;18.47;;;;;;;18.67;85.87;99957.95;1669568;84;21131;-72
2021/07/31 00:57:40;;;;;;;24.05;18.02;;;;;;;18.66;85.96;99959.64;1663508;84;21131;-71
2021/07/31 01:00:15;;;;;;;23.07;17.63;;;;;;;18.64;86.04;99957.25;1668436;84;20964;-71
2021/07/31 01:02:42;;;;;;;24.07;17.23;;;;;;;18.61;86.09;99951.69;1680666;83;21161;-71
2021/07/31 01:05:10;;;;;;;20.47;16.60;;;;;;;18.59;86.16;99956.63;1678830;84;21110;-71
2021/07/31 01:07:37;;;;;;;22.83;18.30;;;;;;;18.54;86.23;99956.26;1641751;85;21544;-71
2021/07/31 01:10:04;;;;;;;23.33;18.90;;;;;;;18.51;86.34;99958.26;1681889;84;21067;-71
2021/07/31 01:12:34;;;;;;;25.23;19.43;;;;;;;18.48;86.42;99955.64;1679574;83;21018;-72
2021/07/31 01:15:04;;;;;;;24.30;19.70;;;;;;;18.45;86.53;99954.93;1679584;84;21167;-72
2021/07/31 01:17:33;;;;;;;22.73;18.67;;;;;;;18.43;86.64;99960.45;1688843;83;20956;-72
2021/07/31 01:20:00;;;;;;;24.70;18.93;;;;;;;18.40;86.73;99956.48;1685201;83;21571;-72
2021/07/31 01:22:27;;;;;;;20.07;16.30;;;;;;;18.37;86.81;99957.69;1684445;83;21463;-72
2021/07/31 01:25:00;;;;;;;;;;;;;;;18.33;86.86;99950.78;1674576;85;21547;-71
2021/07/31 01:27:27;;;;;;;19.20;15.60;;;;;;;18.30;87.04;99951.42;1673804;85;20773;-71
2021/07/31 01:29:56;;;;;;;19.33;15.37;;;;;;;18.26;87.18;99957.22;1695978;83;21061;-71
2021/07/31 01:32:23;;;;;;;20.57;15.93;;;;;;;18.21;87.24;99959.55;1678398;83;20993;-71
2021/07/31 01:34:49;;;;;;;24.90;16.90;;;;;;;18.19;87.47;99954.23;1693006;83;21528;-71
2021/07/31 01:37:17;;;;;;;23.80;17.10;;;;;;;18.16;87.59;99958.36;1695232;83;21563;-71
2021/07/31 01:39:47;;;;;;;18.70;16.07;;;;;;;18.14;87.79;99957.91;1684836;84;21118;-71
2021/07/31 01:42:14;;;;;;;20.77;16.13;;;;;;;18.13;87.89;99956.33;1695323;82;21199;-72
2021/07/31 01:44:42;;;;;;;19.13;15.03;;;;;;;18.11;88.04;99951.79;1681538;83;21124;-72
2021/07/31 01:47:09;;;;;;;21.83;15.67;;;;;;;18.09;88.15;99955.92;1691426;83;21006;-71
2021/07/31 01:49:36;;;;;;;19.17;14.83;;;;;;;18.08;88.24;99955.70;1701406;83;20994;-71
2021/07/31 01:52:08;;;;;;;15.70;14.00;;;;;;;18.07;88.36;99955.47;1701962;82;22130;-72
2021/07/31 01:54:34;;;;;;;17.00;14.10;;;;;;;18.04;88.43;99949.58;1686335;83;20937;-71
2021/07/31 01:57:04;;;;;;;16.03;13.60;;;;;;;18.03;88.47;99950.70;1675778;83;21072;-72
2021/07/31 01:59:49;;;;;;;18.40;14.37;;;;;;;18.02;88.53;99960.47;1685051;84;21568;-72
2021/07/31 02:02:16;;;;;;;16.73;14.27;;;;;;;18.00;88.53;99960.80;1691107;83;21930;-72
2021/07/31 02:04:44;;;;;;;18.00;13.83;;;;;;;17.99;88.58;99965.16;1678296;83;21593;-72
2021/07/31 02:07:13;;;;;;;18.33;14.27;;;;;;;17.97;88.61;99960.66;1663658;83;21528;-72
2021/07/31 02:09:40;;;;;;;16.30;14.47;;;;;;;17.96;88.67;99957.13;1690268;84;21004;-71
2021/07/31 02:12:08;;;;;;;17.17;13.47;;;;;;;17.97;88.71;99962.80;1685179;83;21658;-71
2021/07/31 02:14:37;;;;;;;16.70;13.67;;;;;;;17.95;88.79;99965.02;1678232;83;21196;-72
2021/07/31 02:17:05;;;;;;;14.97;13.47;;;;;;;17.95;88.88;99965.58;1703540;83;21485;-71
2021/07/31 02:19:33;;;;;;;15.23;13.57;;;;;;;17.96;88.95;99965.80;1700054;83;21091;-72
2021/07/31 02:22:02;;;;;;;16.53;13.70;;;;;;;17.95;89.01;99965.02;1690686;83;21060;-72
2021/07/31 02:24:42;;;;;;;15.90;13.00;;;;;;;17.94;89.12;99968.84;1677308;84;21009;-71
2021/07/31 02:27:14;;;;;;;15.90;14.20;;;;;;;17.92;89.20;99969.70;1703223;83;20974;-72
2021/07/31 02:29:48;;;;;;;17.30;14.53;;;;;;;17.91;89.15;99964.63;1692825;84;21830;-72
2021/07/31 02:32:18;;;;;;;15.40;13.67;;;;;;;17.90;89.17;99962.49;1703911;83;21076;-71
2021/07/31 02:34:45;;;;;;;15.33;13.60;;;;;;;17.90;89.20;99970.59;1672964;83;21416;-72
2021/07/31 02:37:12;;;;;;;14.97;13.37;;;;;;;17.92;89.26;99972.97;1682984;84;20945;-71
2021/07/31 02:39:40;;;;;;;17.33;15.20;;;;;;;17.89;89.35;99973.05;1684239;83;21072;-72
2021/07/31 02:42:07;;;;;;;16.83;15.03;;;;;;;17.89;89.53;99982.50;1682121;84;22193;-72
2021/07/31 02:44:36;;;;;;;16.93;15.03;;;;;;;17.86;89.70;99984.48;1682195;83;21011;-71
2021/07/31 02:47:06;;;;;;;18.00;15.10;;;;;;;17.87;89.88;99987.45;1671616;83;21080;-72
2021/07/31 02:49:34;;;;;;;19.27;15.80;;;;;;;17.88;89.99;99984.97;1677025;85;21531;-72
2021/07/31 02:52:01;;;;;;;17.13;15.07;;;;;;;17.89;90.09;99981.15;1650347;84;21087;-72
2021/07/31 02:54:31;;;;;;;16.63;14.93;;;;;;;17.92;90.19;99980.52;1695100;82;21850;-72
2021/07/31 02:57:00;;;;;;;17.17;15.07;;;;;;;17.97;90.24;99989.02;1683413;84;21007;-72
2021/07/31 02:59:31;;;;;;;16.07;14.37;;;;;;;18.01;90.29;99989.41;1699399;83;21496;-72
2021/07/31 03:01:58;;;;;;;17.27;15.15;;;;;;;18.05;90.32;99986.30;1686650;83;21670;-71
2021/07/31 03:04:25;;;;;;;16.77;14.97;;;;;;;18.09;90.34;99987.00;1697647;82;21435;-71
2021/07/31 03:06:54;;;;;;;16.23;14.53;;;;;;;18.12;90.35;99985.80;1655559;86;22031;-71
2021/07/31 03:09:20;;;;;;;17.97;15.50;;;;;;;18.15;90.35;99992.48;1679502;84;21008;-71
2021/07/31 03:11:48;;;;;;;17.73;15.27;;;;;;;18.17;90.31;99988.34;1666346;84;21211;-71
2021/07/31 03:14:15;;;;;;;16.50;14.80;;;;;;;18.20;90.21;99990.41;1682851;82;21608;-71
2021/07/31 03:16:42;;;;;;;16.40;14.30;;;;;;;18.24;90.12;99998.67;1698765;82;20981;-71
2021/07/31 03:19:09;;;;;;;13.90;12.50;;;;;;;18.27;90.11;100004.78;1694790;84;22175;-71
2021/07/31 03:21:37;;;;;;;14.33;12.17;;;;;;;18.29;90.05;100001.19;1691161;83;21462;-71
2021/07/31 03:24:09;;;;;;;11.43;10.32;;;;;;;18.31;89.98;100004.38;1684318;83;21020;-71
2021/07/31 03:26:36;;;;;;;10.23;9.00;;;;;;;18.34;89.96;100006.44;1695786;82;21509;-72
2021/07/31 03:29:04;;;;;;;10.37;8.10;;;;;;;18.39;89.98;100004.10;1700417;83;21591;-71
2021/07/31 03:31:31;;;;;;;10.13;8.67;;;;;;;18.44;89.96;100006.08;1705526;83;21440;-71
2021/07/31 03:34:00;;;;;;;10.57;8.80;;;;;;;18.51;89.95;100002.31;1707904;82;21060;-71
2021/07/31 03:36:27;;;;;;;9.47;8.57;;;;;;;18.60;89.92;100006.92;1695635;82;21071;-71
2021/07/31 03:38:56;;;;;;;10.90;8.87;;;;;;;18.66;89.82;100004.27;1694815;83;21021;-72
2021/07/31 03:41:23;;;;;;;10.30;9.20;;;;;;;18.73;89.75;100004.59;1701858;83;21195;-71
2021/07/31 03:43:52;;;;;;;10.93;9.73;;;;;;;18.81;89.61;100005.09;1714156;83;21878;-71
2021/07/31 03:46:19;;;;;;;12.97;10.50;;;;;;;18.90;89.53;100014.53;1697382;82;21127;-71
2021/07/31 03:48:47;;;;;;;11.97;10.27;;;;;;;18.97;89.43;100012.89;1686661;84;20997;-71
2021/07/31 03:51:15;;;;;;;12.97;10.50;;;;;;;19.04;89.32;100011.03;1701972;83;21516;-71
2021/07/31 03:53:44;;;;;;;12.93;11.23;;;;;;;19.12;89.17;100010.77;1674710;84;20988;-71
2021/07/31 03:56:12;;;;;;;12.00;10.73;;;;;;;19.19;89.05;100011.05;1676024;83;21092;-71
2021/07/31 03:58:41;;;;;;;12.60;10.90;;;;;;;19.26;89.01;100012.66;1685331;84;21228;-71
2021/07/31 04:01:08;;;;;;;12.57;10.50;;;;;;;19.36;88.95;100009.56;1680906;83;21076;-71
2021/07/31 04:03:35;;;;;;;12.23;10.90;;;;;;;19.46;88.99;100011.09;1675988;84;21492;-71
2021/07/31 04:06:02;;;;;;;10.63;9.53;;;;;;;19.54;88.79;100018.35;1682230;84;20984;-71
2021/07/31 04:08:32;;;;;;;11.37;10.17;;;;;;;19.64;88.59;100019.91;1625570;84;21214;-72
2021/07/31 04:11:17;;;;;;;11.20;10.03;;;;;;;19.74;88.39;100018.14;1673781;84;21084;-71
2021/07/31 04:13:54;;;;;;;12.13;10.80;;;;;;;19.87;88.17;100017.64;1622712;87;21599;-72
2021/07/31 04:16:29;;;;;;;11.87;10.70;;;;;;;20.00;88.00;100019.28;1660380;83;22490;-72
2021/07/31 04:18:55;;;;;;;11.50;10.30;;;;;;;20.11;87.87;100020.47;1692843;83;21116;-73
2021/07/31 04:21:22;;;;;;;14.70;10.83;;;;;;;20.21;87.77;100028.75;1705054;83;21085;-71
2021/07/31 04:23:49;;;;;;;11.37;9.83;;;;;;;20.32;87.71;100027.19;1684265;84;21023;-71
2021/07/31 04:26:17;;;;;;;11.57;10.37;;;;;;;20.44;87.54;100027.00;1683515;83;21025;-72
2021/07/31 04:28:44;;;;;;;12.30;11.07;;;;;;;20.56;87.34;100022.96;1680729;84;21035;-72
2021/07/31 04:31:14;;;;;;;13.37;10.07;;;;;;;20.69;87.12;100021.85;1706292;83;21159;-72
2021/07/31 04:33:41;;;;;;;11.97;9.50;;;;;;;20.82;87.01;100024.80;1687504;85;21144;-72
2021/07/31 04:36:08;;;;;;;11.27;10.17;;;;;;;20.97;86.63;100023.34;1691869;83;21057;-72
2021/07/31 04:38:35;;;;;;;11.97;9.60;;;;;;;21.11;86.05;100023.00;1683182;84;21059;-72
2021/07/31 04:41:03;;;;;;;11.37;10.03;;;;;;;21.25;84.72;100026.14;1682772;84;21036;-71
2021/07/31 04:43:33;;;;;;;11.23;9.43;;;;;;;21.36;83.28;100022.44;1701922;83;21013;-72
2021/07/31 04:46:00;;;;;;;11.23;9.60;;;;;;;21.50;82.07;100021.50;1693558;82;22153;-72
2021/07/31 04:48:28;;;;;;;14.43;10.50;;;;;;;21.64;80.88;100021.69;1691402;82;21576;-72
2021/07/31 04:50:59;;;;;;;11.33;10.17;;;;;;;21.78;79.89;100022.91;1701386;83;20981;-72
2021/07/31 04:53:28;;;;;;;11.53;10.33;;;;;;;21.91;78.96;100020.91;1701705;83;21025;-72
2021/07/31 04:55:56;;;;;;;13.50;10.43;;;;;;;22.05;78.29;100015.66;1691704;82;21127;-72
2021/07/31 04:58:23;;;;;;;11.53;9.80;;;;;;;22.18;77.56;100015.85;1663846;85;22167;-72
2021/07/31 05:00:50;;;;;;;11.80;10.13;;;;;;;22.30;76.52;100018.48;1684872;84;21032;-72
2021/07/31 05:03:17;;;;;;;11.53;10.00;;;;;;;22.40;75.76;100017.97;1682922;83;21441;-72
2021/07/31 05:05:44;;;;;;;12.73;10.10;;;;;;;22.53;75.11;100013.81;1684725;84;21459;-72
2021/07/31 05:08:13;;;;;;;10.87;9.60;;;;;;;22.61;74.00;100016.95;1671550;83;21456;-72
2021/07/31 05:10:42;;;;;;;14.17;10.40;;;;;;;22.67;72.97;100010.89;1686444;84;21488;-72
2021/07/31 05:13:08;;;;;;;12.53;10.27;;;;;;;22.74;72.25;100013.55;1670052;84;21551;-72
2021/07/31 05:15:43;;;;;;;11.27;9.97;;;;;;;22.85;71.71;100014.61;1676110;84;21034;-72
2021/07/31 05:18:10;;;;;;;11.67;10.10;;;;;;;22.98;71.24;100023.50;1669732;83;21558;-72
2021/07/31 05:20:43;;;;;;;12.13;9.73;;;;;;;23.07;70.57;100023.53;1683456;84;21607;-72
2021/07/31 05:23:11;;;;;;;12.60;9.77;;;;;;;23.20;70.23;100022.04;1678589;85;21121;-71
2021/07/31 05:25:38;;;;;;;11.67;9.00;;;;;;;23.27;69.75;100020.86;1688868;84;21017;-71
2021/07/31 05:28:05;;;;;;;10.40;9.30;;;;;;;23.36;69.21;100022.24;1691795;82;21699;-72
2021/07/31 05:30:31;;;;;;;11.60;9.73;;;;;;;23.41;68.75;100027.40;1685838;84;21551;-72
2021/07/31 05:32:58;;;;;;;11.60;9.60;;;;;;;23.50;68.44;100023.12;1697609;83;21010;-73
2021/07/31 05:35:25;;;;;;;12.97;10.17;;;;;;;23.61;68.65;100020.03;1689083;83;21591;-74
2021/07/31 05:37:52;;;;;;;12.23;9.47;;;;;;;23.74;68.80;100021.30;1699146;83;21069;-73
2021/07/31 05:40:18;;;;;;;10.93;9.03;;;;;;;23.88;68.38;100027.81;1696199;83;21064;-72
2021/07/31 05:42:45;;;;;;;11.87;8.73;;;;;;;24.01;67.87;100027.08;1690191;83;21631;-72
2021/07/31 05:45:13;;;;;;;10.70;9.50;;;;;;;24.14;66.88;100024.20;1697587;83;21021;-71
2021/07/31 05:47:42;;;;;;;11.70;9.37;;;;;;;24.21;66.31;100021.02;1696225;83;21136;-72
2021/07/31 05:50:09;;;;;;;11.57;9.23;;;;;;;24.30;65.40;100024.31;1693476;82;21140;-73
2021/07/31 05:52:36;;;;;;;9.53;8.33;;;;;;;24.38;64.78;100017.03;1697109;83;21052;-72
2021/07/31 05:55:05;;;;;;;9.30;8.30;;;;;;;24.50;63.96;100018.84;1703927;82;21096;-72
2021/07/31 05:57:32;;;;;;;10.10;8.87;;;;;;;24.59;63.18;100021.34;1700558;82;21053;-73
2021/07/31 05:59:59;;;;;;;10.07;7.93;;;;;;;24.63;62.98;100026.27;1677507;84;21517;-74
2021/07/31 06:02:25;;;;;;;8.80;7.90;;;;;;;24.72;62.84;100022.73;1672374;85;21017;-72
2021/07/31 06:04:52;;;;;;;8.73;7.80;;;;;;;24.80;61.96;100028.50;1675361;85;21061;-72
2021/07/31 06:07:19;;;;;;;10.67;8.30;;;;;;;24.86;61.48;100031.72;1678108;84;21102;-73
2021/07/31 06:09:57;;;;;;;9.73;7.90;;;;;;;24.94;61.52;100031.48;1667950;83;21076;-73
2021/07/31 06:12:22;;;;;;;8.50;7.70;;;;;;;25.04;61.19;100026.75;1674037;83;21796;-73
2021/07/31 06:14:49;;;;;;;10.03;7.77;;;;;;;25.17;60.93;100026.00;1681819;84;21016;-72
2021/07/31 06:17:16;;;;;;;8.10;7.27;;;;;;;25.30;60.50;100031.22;1665823;85;21654;-73
2021/07/31 06:19:45;;;;;;;9.90;7.80;;;;;;;25.41;60.61;100032.95;1665381;83;21530;-74
2021/07/31 06:22:11;;;;;;;9.10;7.07;;;;;;;25.49;60.31;100035.98;1662138;85;21083;-72
2021/07/31 06:24:38;;;;;;;9.63;7.60;;;;;;;25.60;59.91;100028.49;1667262;85;21426;-72
2021/07/31 06:27:05;;;;;;;9.57;7.07;;;;;;;25.72;59.86;100039.20;1668437;85;21056;-72
2021/07/31 06:29:33;;;;;;;9.80;7.10;;;;;;;25.83;58.98;100034.70;1670005;83;21045;-72
2021/07/31 06:32:02;;;;;;;11.47;7.70;;;;;;;25.88;58.52;100040.41;1678706;84;21148;-73
2021/07/31 06:34:28;;;;;;;10.07;7.37;;;;;;;25.97;58.41;100045.02;1686883;84;21111;-72
2021/07/31 06:36:55;;;;;;;9.03;7.10;;;;;;;26.05;58.11;100049.39;1671030;85;21512;-73
2021/07/31 06:39:22;;;;;;;8.93;6.63;;;;;;;26.16;58.24;100043.48;1677213;83;21086;-73
2021/07/31 06:41:49;;;;;;;8.10;6.87;;;;;;;26.29;58.07;100042.63;1672424;83;21071;-72
2021/07/31 06:44:16;;;;;;;8.33;6.60;;;;;;;26.43;57.03;100039.23;1694029;83;21104;-73
2021/07/31 06:46:42;;;;;;;8.20;6.23;;;;;;;26.54;56.35;100038.77;1673369;83;21099;-73
2021/07/31 06:49:09;;;;;;;8.73;7.23;;;;;;;26.67;55.65;100033.80;1681038;83;21530;-73
2021/07/31 06:51:42;;;;;;;10.00;6.57;;;;;;;26.81;56.05;100035.27;1682313;84;21059;-74
2021/07/31 06:54:06;;;;;;;8.20;6.47;;;;;;;26.96;54.29;100029.92;1663029;84;21051;-73
2021/07/31 06:56:35;;;;;;;7.70;6.30;;;;;;;27.02;54.19;100025.07;1684915;82;21739;-73
2021/07/31 06:59:03;;;;;;;8.47;6.37;;;;;;;27.13;54.05;100026.53;1684461;84;21047;-73
2021/07/31 07:01:30;;;;;;;6.63;5.50;;;;;;;27.24;53.70;100019.73;1682922;84;21201;-72
2021/07/31 07:03:57;;;;;;;8.03;6.37;;;;;;;27.34;53.06;100020.37;1685400;84;21039;-74
2021/07/31 07:06:24;;;;;;;8.43;6.20;;;;;;;27.40;53.27;100022.18;1688486;84;20997;-73
2021/07/31 07:08:51;;;;;;;7.87;6.00;;;;;;;27.47;52.67;100026.33;1684289;84;21042;-73
2021/07/31 07:11:17;;;;;;;10.13;5.70;;;;;;;27.56;52.61;100023.44;1681625;82;21570;-73
2021/07/31 07:13:45;;;;;;;6.83;4.73;;;;;;;27.64;51.58;100021.53;1690367;84;21202;-73
2021/07/31 07:16:14;;;;;;;6.13;4.70;;;;;;;27.72;48.10;100023.11;1686434;84;21080;-73
2021/07/31 07:18:40;;;;;;;7.17;4.40;;;;;;;27.78;46.68;100025.72;1681701;84;21514;-74
2021/07/31 07:21:09;;;;;;;6.27;4.10;;;;;;;27.86;44.95;100016.91;1687828;82;21040;-74
2021/07/31 07:23:36;;;;;;;5.50;4.10;;;;;;;27.92;41.87;100026.94;1689688;84;21079;-73
2021/07/31 07:26:05;;;;;;;5.40;3.83;;;;;;;27.92;41.25;100024.97;1690307;84;22137;-73
2021/07/31 07:28:31;;;;;;;5.70;4.13;;;;;;;27.92;40.78;100024.19;1679726;84;21067;-73
2021/07/31 07:30:59;;;;;;;4.57;3.97;;;;;;;27.92;41.32;100016.73;1684745;82;20981;-73
2021/07/31 07:33:26;;;;;;;5.40;4.07;;;;;;;27.96;41.31;100025.77;1683414;84;21066;-74
2021/07/31 07:35:53;;;;;;;6.03;3.80;;;;;;;28.03;40.75;100020.28;1693855;84;21012;-74
2021/07/31 07:38:20;;;;;;;6.23;4.27;;;;;;;28.16;41.21;100022.08;1685198;84;21444;-74
2021/07/31 07:40:48;;;;;;;5.37;4.00;;;;;;;28.27;40.73;100019.38;1657413;84;21527;-73
2021/07/31 07:43:14;;;;;;;7.37;4.20;;;;;;;28.38;40.11;100008.40;1683082;82;21632;-74
2021/07/31 07:45:41;;;;;;;5.20;3.80;;;;;;;28.49;40.12;100016.08;1689295;84;21023;-74
2021/07/31 07:48:08;;;;;;;5.73;3.70;;;;;;;28.61;39.94;100020.41;1685151;84;21032;-72
2021/07/31 07:50:34;;;;;;;6.07;3.90;;;;;;;28.71;39.92;100017.65;1681353;82;21527;-73
2021/07/31 07:53:01;;;;;;;6.37;3.87;;;;;;;28.85;40.04;100014.70;1680027;82;21571;-73
2021/07/31 07:55:28;;;;;;;4.97;3.97;;;;;;;28.97;39.68;100015.67;1689847;82;21666;-73
2021/07/31 07:57:55;;;;;;;5.53;3.80;;;;;;;29.06;39.16;100017.46;1688524;84;21027;-72
2021/07/31 08:00:23;;;;;;;5.27;3.70;;;;;;;29.10;38.89;100014.11;1681059;84;20993;-73
2021/07/31 08:02:50;;;;;;;5.30;3.97;;;;;;;29.16;38.39;100018.02;1682223;82;21576;-75
2021/07/31 08:05:17;;;;;;;4.77;3.70;;;;;;;29.19;37.52;100017.83;1682742;82;21090;-74
2021/07/31 08:07:44;;;;;;;6.40;3.70;;;;;;;29.18;37.20;100027.24;1680683;84;21533;-76
2021/07/31 08:10:12;;;;;;;4.80;3.80;;;;;;;29.19;37.37;100015.86;1683271;84;21506;-73
2021/07/31 08:12:39;;;;;;;4.70;3.80;;;;;;;29.29;38.05;100017.61;1685901;82;21044;-75
2021/07/31 08:15:06;;;;;;;5.77;4.23;;;;;;;29.41;38.07;100018.53;1680042;84;21150;-73
2021/07/31 08:17:33;;;;;;;7.03;4.00;;;;;;;29.51;37.58;100019.08;1683730;84;21524;-73
2021/07/31 08:20:00;;;;;;;4.73;3.90;;;;;;;29.61;37.92;100023.01;1684853;84;21094;-74
2021/07/31 08:22:27;;;;;;;5.77;4.03;;;;;;;29.71;37.53;100029.66;1681283;84;21028;-73
2021/07/31 08:24:53;;;;;;;8.45;4.10;;;;;;;29.84;38.27;100028.02;1690769;84;21523;-73
2021/07/31 08:27:20;;;;;;;6.43;4.23;;;;;;;29.95;36.26;100024.63;1682462;84;21551;-73
2021/07/31 08:29:47;;;;;;;4.83;3.90;;;;;;;29.95;34.96;100025.23;1683754;84;21023;-73
2021/07/31 08:32:14;;;;;;;5.30;3.90;;;;;;;29.83;35.69;100018.98;1682632;82;21543;-74
2021/07/31 08:34:42;;;;;;;5.03;3.77;;;;;;;29.77;35.42;100020.58;1684984;84;21549;-74
2021/07/31 08:37:10;;;;;;;4.87;3.20;;;;;;;29.84;35.13;100025.27;1691723;84;21039;-74
2021/07/31 08:39:38;;;;;;;5.15;4.40;;;;;;;29.90;35.20;100018.94;1693667;84;21936;-75
2021/07/31 08:42:05;;;;;;;6.53;3.70;;;;;;;29.87;34.64;100010.10;1695686;82;21905;-75
2021/07/31 08:44:35;;;;;;;5.53;3.83;;;;;;;29.89;35.53;100017.98;1687705;82;20969;-75
2021/07/31 08:47:04;;;;;;;7.03;4.05;;;;;;;30.02;35.65;100014.95;1668077;85;21511;-74
2021/07/31 08:49:33;;;;;;;5.87;4.50;;;;;;;30.14;35.04;100015.87;1681770;84;21019;-73
2021/07/31 08:52:01;;;;;;;4.70;4.08;;;;;;;30.21;35.03;100010.13;1685564;84;21619;-74
2021/07/31 08:54:28;;;;;;;5.97;3.80;;;;;;;30.20;34.87;100005.21;1681702;82;21112;-73
2021/07/31 08:56:55;;;;;;;5.40;3.33;;;;;;;30.14;34.07;100007.60;1684855;84;21031;-74
2021/07/31 08:59:29;;;;;;;5.15;4.00;;;;;;;30.11;35.35;100007.63;1678445;84;22158;-73
2021/07/31 09:01:56;;;;;;;6.03;4.17;;;;;;;30.13;33.65;100001.11;1685752;84;21718;-74
2021/07/31 09:04:23;;;;;;;4.37;3.58;;;;;;;30.10;35.27;100006.82;1678406;82;21149;-74
2021/07/31 09:06:50;;;;;;;7.42;3.67;;;;;;;30.24;36.14;100001.05;1674927;84;21055;-74
2021/07/31 09:09:26;;;;;;;4.58;3.80;;;;;;;30.41;35.53;99997.41;1687897;84;21032;-73
2021/07/31 09:12:00;;;;;;;5.17;3.80;;;;;;;30.51;34.53;100002.05;1679328;84;21427;-74
2021/07/31 09:14:27;;;;;;;4.35;3.50;;;;;;;30.56;33.47;99993.33;1685078;82;21538;-74
2021/07/31 09:16:56;;;;;;;5.50;3.70;;;;;;;30.63;34.53;99995.23;1676474;84;21020;-74
2021/07/31 09:19:24;;;;;;;5.17;3.80;;;;;;;30.79;35.30;99998.87;1678341;84;21071;-73
2021/07/31 09:21:51;;;;;;;5.28;3.90;;;;;;;30.94;34.22;100001.69;1686403;84;21583;-72
2021/07/31 09:24:24;;;;;;;4.45;3.67;;;;;;;31.02;33.57;99999.03;1686286;82;21116;-72
2021/07/31 09:26:53;;;;;;;6.95;4.20;;;;;;;31.06;32.17;99998.98;1679588;84;21011;-74
2021/07/31 09:29:32;;;;;;;7.70;4.17;;;;;;;30.91;32.72;99998.97;1682744;84;21163;-72
2021/07/31 09:32:08;;;;;;;4.78;3.75;;;;;;;30.87;32.75;99995.47;1680156;84;21011;-74
2021/07/31 09:34:46;;;;;;;4.55;3.45;;;;;;;30.95;32.56;99995.57;1657373;84;21029;-73
2021/07/31 09:37:18;;;;;;;4.67;3.92;;;;;;;31.06;32.36;99992.09;1698125;84;20922;-72
2021/07/31 09:40:03;;;;;;;5.12;3.42;;;;;;;31.04;32.10;99991.14;1686073;84;21626;-73
2021/07/31 09:42:40;;;;;;;6.75;4.15;;;;;;;31.10;32.80;99986.53;1693687;84;20982;-73
2021/07/31 09:45:24;;;;;;;7.72;3.80;;;;;;;31.24;33.68;99987.78;1684601;82;21000;-73
2021/07/31 09:48:05;;;;;;;5.80;3.62;;;;;;;31.39;32.94;99985.64;1689390;84;21042;-72
2021/07/31 09:50:47;;;;;;;4.40;3.52;;;;;;;31.49;32.11;99984.73;1691602;84;21469;-73
2021/07/31 09:53:21;;;;;;;5.83;3.60;;;;;;;31.55;32.83;99977.55;1686751;84;21043;-73
2021/07/31 09:55:51;;;;;;;5.05;4.05;;;;;;;31.61;31.39;99977.28;1686377;82;21635;-74
2021/07/31 09:58:19;;;;;;;5.42;4.05;;;;;;;31.48;30.35;99975.67;1682955;84;21119;-73
2021/07/31 10:00:49;;;;;;;5.12;3.62;;;;;;;31.33;31.00;99973.49;1692196;84;20964;-74
2021/07/31 10:03:16;;;;;;;5.85;3.80;;;;;;;31.25;31.18;99970.80;1698684;84;21087;-74
2021/07/31 10:05:43;;;;;;;4.83;3.40;;;;;;;31.20;32.55;99980.14;1691274;82;21048;-73
2021/07/31 10:08:13;;;;;;;5.05;3.60;;;;;;;31.33;31.63;99972.11;1685856;84;20996;-73
2021/07/31 10:10:40;;;;;;;5.80;3.58;;;;;;;31.45;31.14;99975.11;1690764;84;20969;-76
2021/07/31 10:13:07;;;;;;;6.40;3.67;;;;;;;31.47;31.65;99977.48;1690491;84;21488;-75
2021/07/31 10:15:37;;;;;;;4.77;3.67;;;;;;;31.54;32.87;99971.26;1687012;84;20965;-73
2021/07/31 10:18:11;;;;;;;5.58;3.67;;;;;;;31.68;31.17;99966.74;1689522;84;20989;-73
2021/07/31 10:20:38;;;;;;;5.03;3.77;;;;;;;31.70;32.52;99965.14;1687092;84;21150;-75
2021/07/31 10:23:07;;;;;;;4.53;3.67;;;;;;;31.80;32.63;99966.19;1690783;84;21044;-74
2021/07/31 10:25:35;;;;;;;5.70;4.15;;;;;;;31.92;31.50;99960.70;1683372;82;21145;-74
2021/07/31 10:28:23;;;;;;;4.45;3.35;;;;;;;31.96;31.21;99958.69;1690168;84;21238;-73
2021/07/31 10:30:51;;;;;;;4.33;3.60;;;;;;;32.03;31.82;99953.05;1691206;84;21022;-74
2021/07/31 10:33:46;;;;;;;5.92;3.77;;;;;;;32.13;32.16;99956.25;1692681;84;21126;-73
2021/07/31 10:36:34;;;;;;;5.95;3.85;;;;;;;32.20;31.70;99953.97;1690075;82;20957;-74
2021/07/31 10:39:28;;;;;;;4.17;3.62;;;;;;;32.26;31.50;99950.92;1687909;84;20957;-74
2021/07/31 10:42:03;;;;;;;4.05;3.62;;;;;;;32.33;33.12;99960.47;1657549;82;20952;-72
2021/07/31 10:44:30;;;;;;;5.53;3.80;;;;;;;32.42;31.70;99955.80;1671709;84;21087;-75
2021/07/31 10:47:25;;;;;;;6.22;3.80;;;;;;;32.47;31.42;99958.09;1687340;84;21070;-74
2021/07/31 10:49:53;;;;;;;5.35;3.72;;;;;;;32.53;32.65;99961.16;1680829;84;21027;-75
2021/07/31 10:52:52;;;;;;;4.47;3.60;;;;;;;32.59;32.46;99963.02;1688544;84;21016;-73
2021/07/31 10:55:20;;;;;;;4.85;3.80;;;;;;;32.64;32.37;99957.02;1676862;82;21543;-73
2021/07/31 10:58:00;;;;;;;5.72;3.60;;;;;;;32.64;32.36;99956.21;1679399;82;21055;-73
2021/07/31 11:00:39;;;;;;;5.50;3.95;;;;;;;32.61;32.62;99958.44;1680168;84;21614;-73
2021/07/31 11:03:23;;;;;;;5.67;4.00;;;;;;;32.58;32.53;99957.92;1695308;84;21598;-73
2021/07/31 11:06:05;;;;;;;4.53;3.55;;;;;;;32.60;31.26;99954.89;1685947;82;21060;-73
2021/07/31 11:08:50;;;;;;;5.80;3.50;;;;;;;32.58;30.42;99953.78;1686885;84;21113;-74
2021/07/31 11:11:25;;;;;;;4.87;3.50;;;;;;;32.48;30.91;99955.53;1684643;84;21583;-73
2021/07/31 11:13:53;;;;;;;5.25;4.05;;;;;;;32.48;31.10;99946.42;1692509;84;21147;-75
2021/07/31 11:16:23;;;;;;;6.00;3.80;;;;;;;32.46;32.23;99944.88;1689321;82;21637;-73
2021/07/31 11:18:55;;;;;;;4.60;3.67;;;;;;;32.53;31.71;99936.28;1683562;84;21057;-74
2021/07/31 11:21:34;;;;;;;6.50;4.22;;;;;;;32.53;30.97;99926.61;1681102;84;21502;-74
2021/07/31 11:24:10;;;;;;;5.25;4.20;;;;;;;32.43;32.24;99920.84;1683477;84;21083;-76
2021/07/31 11:26:51;;;;;;;6.15;3.92;;;;;;;32.43;32.07;99926.37;1684262;82;21666;-76
2021/07/31 11:29:23;;;;;;;5.05;3.75;;;;;;;32.49;32.90;99924.52;1689070;84;21082;-75
2021/07/31 11:32:11;;;;;;;5.30;3.58;;;;;;;32.56;31.38;99928.53;1684830;84;21031;-76